KLUL/LUL METAR and TAF weather

Enter ICAO airport designator
Station Type Date Time Source
KLUL METAR 2021/09/28 16:35 UTC NOAA

KLUL 281635Z AUTO 00000KT 10SM SCT013 BKN022 BKN028 27/23 A3004 RMK A02 T02750235


Station Type Date Time Source
KLUL Decoded METAR 2021/09/28 16:35 UTC NOAA

Station name not available
Sep 28, 2021 - 12:35 PM EDT / 2021.09.28 1635 UTC
Wind: Calm:0
Visibility: 10 mile(s):0
Sky conditions: mostly cloudy
Temperature: 81.5 F (27.5 C)
Dew Point: 74.3 F (23.5 C)
Relative Humidity: 78%
Pressure (altimeter): 30.04 in. Hg (1017 hPa)
ob: KLUL 281635Z AUTO 00000KT 10SM SCT013 BKN022 BKN028 27/23 A3004 RMK A02 T02750235
cycle: 16

Station Type Date Time Source
KLUL TAF UTC NOAA

Error!

Example: see airport list